createdAt,value
2022-12-14T00:00:42.128Z,79.98
2022-12-14T00:03:11.567Z,79.98
2022-12-14T00:05:41.121Z,80.03
2022-12-14T00:08:10.683Z,80.11
2022-12-14T00:10:40.356Z,80.17
2022-12-14T00:13:10.776Z,80.29
2022-12-14T00:15:40.280Z,80.32
2022-12-14T00:18:09.632Z,80.41
2022-12-14T00:20:39.356Z,80.25
2022-12-14T00:23:11.396Z,80.32
2022-12-14T00:25:42.219Z,80.38
2022-12-14T00:28:12.066Z,80.40
2022-12-14T00:30:41.052Z,80.45
2022-12-14T00:33:10.144Z,80.36
2022-12-14T00:35:38.839Z,80.40
2022-12-14T00:38:08.524Z,80.45
2022-12-14T00:40:38.232Z,80.60
2022-12-14T00:43:07.347Z,80.59
2022-12-14T00:45:36.196Z,80.59
2022-12-14T00:48:06.629Z,80.62
2022-12-14T00:50:36.468Z,80.70
2022-12-14T00:53:05.765Z,80.63
2022-12-14T00:55:39.490Z,80.68
2022-12-14T00:58:09.008Z,80.87
2022-12-14T01:00:39.629Z,80.95
2022-12-14T01:03:08.846Z,81.11
2022-12-14T01:05:39.174Z,81.16
2022-12-14T01:08:08.835Z,81.06
2022-12-14T01:10:40.396Z,81.16
2022-12-14T01:13:10.967Z,81.36
2022-12-14T01:15:42.860Z,81.31
2022-12-14T01:18:12.960Z,81.47
2022-12-14T01:20:42.195Z,81.55
2022-12-14T01:23:12.226Z,81.59
2022-12-14T01:25:41.117Z,81.81
2022-12-14T01:28:10.663Z,81.93
2022-12-14T01:30:40.183Z,82.00
2022-12-14T01:33:09.939Z,82.07
2022-12-14T01:35:39.038Z,82.27
2022-12-14T01:38:08.407Z,82.64
2022-12-14T01:40:37.849Z,83.13
2022-12-14T01:43:13.774Z,83.52
2022-12-14T01:45:43.329Z,83.91
2022-12-14T01:48:13.029Z,84.45
2022-12-14T01:50:44.280Z,85.00
2022-12-14T01:53:20.477Z,85.37
2022-12-14T01:55:53.273Z,85.81
2022-12-14T01:58:25.305Z,86.11
2022-12-14T02:00:56.169Z,86.55
2022-12-14T02:03:30.012Z,86.83
2022-12-14T02:06:14.138Z,87.00
2022-12-14T02:08:43.478Z,86.89
2022-12-14T02:11:13.328Z,86.79
2022-12-14T02:13:42.268Z,86.65
2022-12-14T02:16:11.033Z,86.68
2022-12-14T02:18:41.496Z,86.56
2022-12-14T02:21:44.138Z,86.37
2022-12-14T02:24:56.212Z,85.27
2022-12-14T02:28:10.209Z,84.16
2022-12-14T02:30:40.940Z,83.50
2022-12-14T02:33:30.785Z,82.29
2022-12-14T02:36:23.168Z,82.11
2022-12-14T02:39:18.658Z,81.96
2022-12-14T02:42:04.900Z,81.62
2022-12-14T02:44:55.522Z,81.23
2022-12-14T02:47:36.408Z,81.00
2022-12-14T02:50:29.525Z,80.62
2022-12-14T02:53:23.880Z,80.83
2022-12-14T02:55:59.462Z,80.84
2022-12-14T02:58:41.769Z,80.82
2022-12-14T03:01:14.150Z,80.79
2022-12-14T03:03:43.590Z,80.79
2022-12-14T03:06:21.028Z,80.82
2022-12-14T03:08:50.443Z,80.61
2022-12-14T03:11:23.295Z,80.67
2022-12-14T03:13:59.637Z,80.74
2022-12-14T03:16:33.800Z,80.73
2022-12-14T03:19:20.263Z,80.91
2022-12-14T03:21:54.310Z,81.03
2022-12-14T03:24:34.750Z,81.05
2022-12-14T03:27:10.965Z,80.77
2022-12-14T03:29:50.058Z,80.73
2022-12-14T03:32:22.492Z,80.70
2022-12-14T03:35:01.970Z,80.31
2022-12-14T03:38:12.700Z,80.21
2022-12-14T03:41:17.799Z,80.24
2022-12-14T03:44:01.270Z,80.17
2022-12-14T03:47:13.196Z,80.13
2022-12-14T03:50:00.047Z,80.19
2022-12-14T03:52:44.883Z,79.55
2022-12-14T03:55:31.018Z,79.37
2022-12-14T03:58:23.594Z,79.18
2022-12-14T04:01:19.274Z,78.94
2022-12-14T04:04:18.055Z,79.00
2022-12-14T04:07:07.383Z,78.71
2022-12-14T04:10:01.378Z,78.86
2022-12-14T04:12:57.723Z,78.90
2022-12-14T04:15:53.007Z,78.83
2022-12-14T04:18:44.996Z,78.82
2022-12-14T04:21:42.162Z,78.71
2022-12-14T04:24:47.034Z,78.77
2022-12-14T04:27:24.508Z,78.85
2022-12-14T04:29:56.604Z,79.02
2022-12-14T04:32:52.773Z,78.93
2022-12-14T04:35:40.798Z,79.01
2022-12-14T04:38:20.262Z,78.89
2022-12-14T04:40:52.955Z,78.96
2022-12-14T04:43:26.323Z,79.21
2022-12-14T04:45:59.247Z,79.35
2022-12-14T04:48:39.264Z,79.20
2022-12-14T04:51:49.261Z,78.98
2022-12-14T04:54:55.634Z,79.06
2022-12-14T04:57:46.280Z,79.19
2022-12-14T05:00:16.795Z,79.46
2022-12-14T05:03:15.818Z,79.73
2022-12-14T05:06:15.054Z,79.87
2022-12-14T05:09:04.357Z,79.98
2022-12-14T05:12:12.250Z,80.03
2022-12-14T05:14:49.428Z,79.92
2022-12-14T05:17:18.587Z,79.63
2022-12-14T05:19:48.932Z,79.12
2022-12-14T05:22:18.576Z,78.93
2022-12-14T05:24:47.458Z,78.39
2022-12-14T05:27:16.574Z,78.08
2022-12-14T05:29:45.345Z,77.71
2022-12-14T05:32:14.249Z,77.12
2022-12-14T05:34:45.187Z,76.87
2022-12-14T05:37:18.167Z,76.69
2022-12-14T05:39:44.579Z,76.78
2022-12-14T05:42:13.689Z,76.61
2022-12-14T05:44:42.927Z,76.26
2022-12-14T05:47:11.703Z,76.08
2022-12-14T05:49:40.355Z,76.16
2022-12-14T05:52:09.086Z,76.05
2022-12-14T05:54:38.183Z,76.16
2022-12-14T05:57:07.116Z,76.18
2022-12-14T05:59:36.375Z,76.19
2022-12-14T06:02:06.319Z,75.99
2022-12-14T06:04:36.093Z,76.05
2022-12-14T06:07:05.918Z,75.93
2022-12-14T06:09:35.321Z,75.86
2022-12-14T06:12:05.094Z,76.02
2022-12-14T06:14:33.683Z,76.14
2022-12-14T06:17:02.531Z,76.17
2022-12-14T06:19:31.389Z,76.22
2022-12-14T06:22:01.129Z,76.19
2022-12-14T06:24:30.284Z,76.24
2022-12-14T06:26:59.599Z,76.15
2022-12-14T06:29:29.285Z,76.19
2022-12-14T06:31:58.465Z,76.06
2022-12-14T06:34:28.744Z,75.97
2022-12-14T06:36:58.554Z,75.98
2022-12-14T06:39:28.652Z,75.92
2022-12-14T06:41:59.235Z,75.94
2022-12-14T06:44:30.811Z,76.15
2022-12-14T06:47:00.578Z,76.15
2022-12-14T06:49:29.979Z,76.21
2022-12-14T06:51:59.064Z,76.18
2022-12-14T06:54:30.467Z,76.24
2022-12-14T06:56:59.212Z,76.20
2022-12-14T06:59:28.329Z,76.18
2022-12-14T07:01:57.157Z,76.29
2022-12-14T07:04:28.969Z,76.49
2022-12-14T07:06:58.661Z,76.65
2022-12-14T07:09:27.658Z,76.89
2022-12-14T07:11:56.857Z,76.91
2022-12-14T07:14:26.227Z,76.92
2022-12-14T07:16:55.742Z,76.86
2022-12-14T07:19:24.757Z,77.08
2022-12-14T07:21:53.639Z,77.07
2022-12-14T07:24:23.187Z,76.83
2022-12-14T07:26:53.499Z,76.80
2022-12-14T07:29:25.733Z,76.83
2022-12-14T07:31:56.283Z,76.53
2022-12-14T07:34:26.529Z,76.67
2022-12-14T07:36:55.609Z,76.63
2022-12-14T07:39:25.876Z,76.82
2022-12-14T07:41:55.022Z,76.81
2022-12-14T07:44:24.121Z,76.78
2022-12-14T07:46:55.115Z,76.55
2022-12-14T07:49:24.672Z,76.45
2022-12-14T07:51:54.009Z,76.26
2022-12-14T07:54:23.388Z,76.36
2022-12-14T10:16:52.280Z,68.78
2022-12-14T10:19:38.805Z,68.17
2022-12-14T10:22:16.720Z,68.00
2022-12-14T10:24:56.216Z,66.98
2022-12-14T10:27:27.488Z,66.90
2022-12-14T10:30:06.926Z,67.13
2022-12-14T10:32:39.978Z,66.78
2022-12-14T10:35:15.802Z,66.10
2022-12-14T10:37:53.464Z,66.32
2022-12-14T10:40:34.537Z,66.40
2022-12-14T10:43:08.897Z,66.49
2022-12-14T10:45:47.152Z,65.89
2022-12-14T10:48:45.682Z,65.51
2022-12-14T10:51:37.098Z,65.03
2022-12-14T10:54:41.488Z,64.89
2022-12-14T10:57:12.395Z,64.61
2022-12-14T10:59:55.609Z,64.51
2022-12-14T11:02:22.334Z,64.16
2022-12-14T11:05:03.500Z,63.31
2022-12-14T11:07:38.582Z,62.93
2022-12-14T11:10:28.387Z,62.44
2022-12-14T11:13:16.835Z,63.28
2022-12-14T11:15:49.237Z,63.21
2022-12-14T11:18:30.243Z,63.02
2022-12-14T11:21:06.001Z,62.73
2022-12-14T11:23:40.866Z,62.34
2022-12-14T11:26:17.469Z,61.50
2022-12-14T11:28:52.378Z,61.20
2022-12-14T11:31:48.141Z,61.10
2022-12-14T11:34:45.771Z,60.94
2022-12-14T11:37:30.828Z,61.05
2022-12-14T11:40:05.457Z,61.27
2022-12-14T11:42:45.546Z,62.05
2022-12-14T11:45:30.557Z,62.05
2022-12-14T11:48:28.761Z,62.49
2022-12-14T11:51:22.492Z,62.23
2022-12-14T11:54:06.059Z,62.25
2022-12-14T11:56:40.478Z,61.71
2022-12-14T11:59:14.431Z,61.40
2022-12-14T12:02:07.616Z,60.77
2022-12-14T12:04:50.420Z,60.74
2022-12-14T12:07:36.249Z,60.10
2022-12-14T12:10:17.994Z,60.17
2022-12-14T12:13:12.758Z,60.49
2022-12-14T12:15:58.846Z,60.66
2022-12-14T12:18:34.788Z,60.73
2022-12-14T12:21:22.838Z,60.58
2022-12-14T12:24:26.572Z,60.54
2022-12-14T12:27:06.169Z,60.65
2022-12-14T12:30:20.521Z,60.67
2022-12-14T12:33:01.015Z,60.45
2022-12-14T12:35:55.985Z,60.53
2022-12-14T12:38:49.502Z,60.87
2022-12-14T12:41:33.942Z,61.16
2022-12-14T12:44:35.490Z,61.50
2022-12-14T12:47:46.563Z,61.35
2022-12-14T12:50:23.173Z,61.10
2022-12-14T12:53:15.199Z,60.77
2022-12-14T12:55:55.506Z,61.03
2022-12-14T12:58:36.580Z,61.30
2022-12-14T13:01:24.948Z,61.36
2022-12-14T13:04:21.462Z,61.22
2022-12-14T13:07:13.818Z,61.17
2022-12-14T13:10:08.062Z,61.06
2022-12-14T13:12:48.566Z,61.04
2022-12-14T13:15:42.551Z,60.67
2022-12-14T13:18:56.600Z,60.50
2022-12-14T13:21:16.492Z,60.80
2022-12-14T13:23:45.850Z,61.00
2022-12-14T13:26:57.653Z,60.60
2022-12-14T13:29:44.487Z,60.62
2022-12-14T13:32:44.588Z,60.61
2022-12-14T13:35:38.614Z,60.98
2022-12-14T13:38:39.720Z,60.44
2022-12-14T13:41:44.731Z,60.74
2022-12-14T13:44:37.441Z,61.32
2022-12-14T13:47:21.128Z,61.97
2022-12-14T13:52:42.122Z,62.17
2022-12-14T13:56:16.968Z,62.44
2022-12-14T13:58:56.247Z,62.93
2022-12-14T14:02:00.857Z,63.36
2022-12-14T14:04:44.187Z,63.75
2022-12-14T14:07:32.916Z,64.67
2022-12-14T14:10:13.559Z,65.24
2022-12-14T14:12:47.973Z,65.15
2022-12-14T14:16:04.013Z,65.37
2022-12-14T14:18:20.330Z,65.20
2022-12-14T14:21:26.994Z,65.38
2022-12-14T14:24:16.742Z,65.78
2022-12-14T14:27:18.967Z,65.21
2022-12-14T14:30:15.735Z,64.99
2022-12-14T14:32:47.696Z,65.54
2022-12-14T14:35:30.847Z,65.82
2022-12-14T14:38:02.703Z,66.01
2022-12-14T14:41:06.598Z,65.97
2022-12-14T14:43:20.345Z,66.24
2022-12-14T14:45:54.489Z,66.45
2022-12-14T14:48:48.136Z,66.96
2022-12-14T14:51:29.640Z,67.79
2022-12-14T14:55:06.526Z,68.31
2022-12-14T14:57:29.518Z,68.60
2022-12-14T15:00:22.022Z,69.64
2022-12-14T15:03:10.096Z,70.14
2022-12-14T15:06:16.200Z,70.25
2022-12-14T15:10:02.814Z,69.97
2022-12-14T15:16:09.548Z,69.63
2022-12-14T15:18:43.879Z,69.47
2022-12-14T15:21:19.576Z,69.81
2022-12-14T15:24:15.449Z,69.43
2022-12-14T15:26:47.495Z,69.52
2022-12-14T15:29:26.313Z,69.47
2022-12-14T15:32:03.331Z,69.49
2022-12-14T15:34:53.664Z,69.33
2022-12-14T15:37:59.986Z,69.27
2022-12-14T15:40:54.427Z,69.28
2022-12-14T15:44:08.779Z,69.29
2022-12-14T15:47:01.497Z,69.20
2022-12-14T15:50:04.310Z,69.10
2022-12-14T15:52:56.715Z,68.94
2022-12-14T15:55:36.804Z,68.91
2022-12-14T15:58:39.151Z,68.68
2022-12-14T16:01:54.331Z,68.77
2022-12-14T16:04:49.375Z,68.92
2022-12-14T19:26:09.456Z,78.74
2022-12-14T19:28:40.763Z,78.78
2022-12-14T19:31:13.443Z,78.94
2022-12-14T19:33:43.139Z,79.07
2022-12-14T19:36:12.681Z,79.30
2022-12-14T19:38:42.529Z,79.58
2022-12-14T19:41:12.119Z,79.80
2022-12-14T19:43:42.358Z,80.11
2022-12-14T19:46:13.206Z,80.45
2022-12-14T19:48:49.562Z,80.58
2022-12-14T19:51:20.340Z,80.99
2022-12-14T19:53:49.677Z,80.99
2022-12-14T19:56:19.522Z,81.15
2022-12-14T19:58:50.052Z,81.38
2022-12-14T20:01:19.368Z,81.42
2022-12-14T20:03:50.308Z,81.57
2022-12-14T20:06:19.423Z,81.52
2022-12-14T20:08:49.212Z,81.53
2022-12-14T20:11:20.388Z,81.51
2022-12-14T20:13:58.170Z,81.60
2022-12-14T20:16:25.487Z,81.67
2022-12-14T20:18:54.409Z,81.69
2022-12-14T20:21:23.628Z,81.62
2022-12-14T20:23:52.829Z,81.59
2022-12-14T20:26:22.623Z,81.65
2022-12-14T20:28:54.413Z,81.79
2022-12-14T20:31:26.564Z,81.85
2022-12-14T20:33:56.026Z,81.92
2022-12-14T20:36:25.887Z,81.93
2022-12-14T20:38:58.187Z,82.03
2022-12-14T20:41:28.062Z,82.02
2022-12-14T20:43:57.397Z,81.96
2022-12-14T20:46:38.857Z,81.99
2022-12-14T20:49:17.021Z,82.00
2022-12-14T20:51:47.770Z,82.02
2022-12-14T20:54:22.892Z,81.92
2022-12-14T20:56:53.814Z,81.99
2022-12-14T20:59:24.462Z,81.95
2022-12-14T21:01:56.562Z,81.87
2022-12-14T21:04:28.094Z,81.89
2022-12-14T21:06:57.306Z,81.79
2022-12-14T21:09:26.602Z,81.76
2022-12-14T21:12:15.196Z,81.76
2022-12-14T21:14:48.033Z,81.87
2022-12-14T21:17:21.517Z,81.80
2022-12-14T21:19:51.492Z,81.72
2022-12-14T21:22:23.838Z,81.72
2022-12-14T21:25:03.732Z,81.69
2022-12-14T21:27:27.928Z,81.74
2022-12-14T21:29:57.213Z,81.70
2022-12-14T21:32:27.070Z,81.70
2022-12-14T21:34:57.470Z,81.68
2022-12-14T21:37:27.920Z,81.77
2022-12-14T21:39:57.719Z,81.89
2022-12-14T21:42:27.959Z,81.96
2022-12-14T21:44:58.163Z,82.04
2022-12-14T21:47:29.490Z,82.13
2022-12-14T21:49:59.725Z,82.29
2022-12-14T21:52:31.927Z,82.43
2022-12-14T21:55:03.734Z,82.49
2022-12-14T21:57:53.425Z,82.54
2022-12-14T22:00:23.947Z,82.54
2022-12-14T22:02:54.842Z,82.64
2022-12-14T22:05:25.515Z,82.69
2022-12-14T22:07:54.840Z,82.80
2022-12-14T22:10:25.272Z,82.79
2022-12-14T22:12:54.956Z,82.89
2022-12-14T22:15:25.657Z,82.97
2022-12-14T22:17:55.487Z,83.04
2022-12-14T22:20:24.798Z,83.06
2022-12-14T22:22:54.497Z,83.08
2022-12-14T22:25:24.660Z,83.24
2022-12-14T22:27:53.884Z,83.30
2022-12-14T22:30:28.495Z,83.37
2022-12-14T22:32:56.148Z,83.47
2022-12-14T22:35:25.848Z,83.57
2022-12-14T22:37:56.091Z,83.61
2022-12-14T22:40:26.287Z,83.65
2022-12-14T22:42:55.783Z,83.71
2022-12-14T22:45:25.708Z,83.69
2022-12-14T22:47:55.047Z,83.69
2022-12-14T22:50:24.537Z,83.62
2022-12-14T22:52:53.669Z,83.72
2022-12-14T22:55:24.436Z,83.68
2022-12-14T22:57:53.763Z,83.64
2022-12-14T23:00:22.774Z,83.68
2022-12-14T23:02:52.313Z,83.59
2022-12-14T23:05:22.454Z,83.50
2022-12-14T23:07:53.472Z,83.48
2022-12-14T23:10:43.032Z,83.50
2022-12-14T23:13:31.872Z,83.42
2022-12-14T23:16:20.184Z,83.42
2022-12-14T23:19:08.239Z,83.28
2022-12-14T23:21:57.749Z,83.13
2022-12-14T23:24:48.170Z,83.02
2022-12-14T23:27:36.066Z,82.91
2022-12-14T23:30:25.631Z,82.92
2022-12-14T23:33:15.723Z,82.86
2022-12-14T23:36:04.269Z,82.64
2022-12-14T23:38:53.254Z,82.47
2022-12-14T23:41:42.023Z,82.41
2022-12-14T23:44:30.437Z,82.38
2022-12-14T23:47:18.376Z,82.23
2022-12-14T23:50:06.620Z,81.96
2022-12-14T23:52:59.476Z,81.68
2022-12-14T23:55:47.009Z,81.39
